sensor_id;sensor_type;location;lat;lon;timestamp;pressure;altitude;pressure_sealevel;temperature;humidity
45275;BME280;31019;43.780;25.948;2023-12-20T00:01:06;101445.91;;;-1.63;100.00
45275;BME280;31019;43.780;25.948;2023-12-20T00:03:33;101443.53;;;-1.79;100.00
45275;BME280;31019;43.780;25.948;2023-12-20T00:06:04;101435.88;;;-1.56;100.00
45275;BME280;31019;43.780;25.948;2023-12-20T00:08:31;101438.88;;;-1.26;100.00
45275;BME280;31019;43.780;25.948;2023-12-20T00:10:57;101429.41;;;-1.64;100.00
45275;BME280;31019;43.780;25.948;2023-12-20T00:13:24;101429.75;;;-1.68;100.00
45275;BME280;31019;43.780;25.948;2023-12-20T00:15:51;101434.75;;;-1.41;100.00
45275;BME280;31019;43.780;25.948;2023-12-20T00:18:20;101427.25;;;-1.22;100.00
45275;BME280;31019;43.780;25.948;2023-12-20T00:20:47;101430.00;;;-1.47;100.00
45275;BME280;31019;43.780;25.948;2023-12-20T00:23:15;101429.66;;;-1.43;100.00
45275;BME280;31019;43.780;25.948;2023-12-20T00:25:42;101430.66;;;-1.56;100.00
45275;BME280;31019;43.780;25.948;2023-12-20T00:28:09;101429.97;;;-1.71;100.00
45275;BME280;31019;43.780;25.948;2023-12-20T00:30:36;101430.34;;;-1.65;100.00
45275;BME280;31019;43.780;25.948;2023-12-20T00:33:04;101428.03;;;-1.56;100.00
45275;BME280;31019;43.780;25.948;2023-12-20T00:35:31;101418.09;;;-1.51;100.00
45275;BME280;31019;43.780;25.948;2023-12-20T00:37:58;101425.09;;;-1.28;100.00
45275;BME280;31019;43.780;25.948;2023-12-20T00:40:26;101417.19;;;-1.26;100.00
45275;BME280;31019;43.780;25.948;2023-12-20T00:42:53;101414.56;;;-1.50;100.00
45275;BME280;31019;43.780;25.948;2023-12-20T00:45:20;101405.38;;;-1.43;100.00
45275;BME280;31019;43.780;25.948;2023-12-20T00:47:47;101410.63;;;-1.08;100.00
45275;BME280;31019;43.780;25.948;2023-12-20T00:50:14;101412.28;;;-1.07;100.00
45275;BME280;31019;43.780;25.948;2023-12-20T00:52:43;101417.47;;;-1.07;100.00
45275;BME280;31019;43.780;25.948;2023-12-20T00:55:20;101398.53;;;-1.09;100.00
45275;BME280;31019;43.780;25.948;2023-12-20T00:57:48;101396.25;;;-1.13;100.00
45275;BME280;31019;43.780;25.948;2023-12-20T01:00:16;101389.94;;;-1.22;100.00
45275;BME280;31019;43.780;25.948;2023-12-20T01:02:43;101386.66;;;-1.13;100.00
45275;BME280;31019;43.780;25.948;2023-12-20T01:05:12;101378.09;;;-1.15;100.00
45275;BME280;31019;43.780;25.948;2023-12-20T01:07:38;101379.69;;;-1.36;100.00
45275;BME280;31019;43.780;25.948;2023-12-20T01:10:06;101376.34;;;-1.14;100.00
45275;BME280;31019;43.780;25.948;2023-12-20T01:12:33;101368.31;;;-1.11;100.00
45275;BME280;31019;43.780;25.948;2023-12-20T01:15:01;101367.59;;;-1.38;100.00
45275;BME280;31019;43.780;25.948;2023-12-20T01:17:28;101365.38;;;-1.31;100.00
45275;BME280;31019;43.780;25.948;2023-12-20T01:19:55;101357.00;;;-1.23;100.00
45275;BME280;31019;43.780;25.948;2023-12-20T01:22:22;101356.16;;;-1.59;100.00
45275;BME280;31019;43.780;25.948;2023-12-20T01:24:48;101347.56;;;-1.48;100.00
45275;BME280;31019;43.780;25.948;2023-12-20T01:27:15;101346.06;;;-1.28;100.00
45275;BME280;31019;43.780;25.948;2023-12-20T01:29:42;101336.28;;;-1.13;100.00
45275;BME280;31019;43.780;25.948;2023-12-20T01:32:10;101328.09;;;-1.55;100.00
45275;BME280;31019;43.780;25.948;2023-12-20T01:34:37;101333.31;;;-1.55;100.00
45275;BME280;31019;43.780;25.948;2023-12-20T01:37:04;101316.75;;;-1.78;100.00
45275;BME280;31019;43.780;25.948;2023-12-20T01:39:31;101317.97;;;-1.95;100.00
45275;BME280;31019;43.780;25.948;2023-12-20T01:41:59;101306.56;;;-2.05;100.00
45275;BME280;31019;43.780;25.948;2023-12-20T01:44:25;101298.53;;;-2.15;100.00
45275;BME280;31019;43.780;25.948;2023-12-20T01:46:53;101293.16;;;-2.25;100.00
45275;BME280;31019;43.780;25.948;2023-12-20T01:49:27;101298.06;;;-2.20;100.00
45275;BME280;31019;43.780;25.948;2023-12-20T01:51:55;101292.91;;;-2.09;100.00
45275;BME280;31019;43.780;25.948;2023-12-20T01:54:22;101285.75;;;-1.94;100.00
45275;BME280;31019;43.780;25.948;2023-12-20T01:56:50;101284.78;;;-2.04;100.00
45275;BME280;31019;43.780;25.948;2023-12-20T01:59:18;101288.44;;;-2.07;100.00
45275;BME280;31019;43.780;25.948;2023-12-20T02:01:46;101286.22;;;-2.00;100.00
45275;BME280;31019;43.780;25.948;2023-12-20T02:04:17;101280.34;;;-1.91;100.00
45275;BME280;31019;43.780;25.948;2023-12-20T02:06:46;101274.88;;;-1.64;100.00
45275;BME280;31019;43.780;25.948;2023-12-20T02:09:23;101283.84;;;-1.44;100.00
45275;BME280;31019;43.780;25.948;2023-12-20T02:11:50;101281.00;;;-1.41;100.00
45275;BME280;31019;43.780;25.948;2023-12-20T02:14:24;101278.72;;;-1.57;100.00
45275;BME280;31019;43.780;25.948;2023-12-20T02:16:51;101276.25;;;-1.82;100.00
45275;BME280;31019;43.780;25.948;2023-12-20T02:22:35;101266.81;;;-1.72;100.00
45275;BME280;31019;43.780;25.948;2023-12-20T02:25:02;101260.94;;;-1.52;100.00
45275;BME280;31019;43.780;25.948;2023-12-20T02:27:31;101254.94;;;-1.76;100.00
45275;BME280;31019;43.780;25.948;2023-12-20T02:29:58;101248.16;;;-1.55;100.00
45275;BME280;31019;43.780;25.948;2023-12-20T02:32:25;101249.97;;;-1.44;100.00
45275;BME280;31019;43.780;25.948;2023-12-20T02:34:59;101247.00;;;-1.51;100.00
45275;BME280;31019;43.780;25.948;2023-12-20T02:37:38;101237.69;;;-1.20;100.00
45275;BME280;31019;43.780;25.948;2023-12-20T02:40:06;101232.59;;;-1.10;100.00
45275;BME280;31019;43.780;25.948;2023-12-20T02:42:33;101233.19;;;-1.18;100.00
45275;BME280;31019;43.780;25.948;2023-12-20T02:45:00;101232.91;;;-1.37;100.00
45275;BME280;31019;43.780;25.948;2023-12-20T02:47:27;101230.09;;;-1.45;100.00
45275;BME280;31019;43.780;25.948;2023-12-20T02:49:57;101228.06;;;-1.42;100.00
45275;BME280;31019;43.780;25.948;2023-12-20T02:52:24;101217.88;;;-1.33;100.00
45275;BME280;31019;43.780;25.948;2023-12-20T02:54:55;101221.81;;;-1.39;100.00
45275;BME280;31019;43.780;25.948;2023-12-20T02:57:21;101228.34;;;-1.69;100.00
45275;BME280;31019;43.780;25.948;2023-12-20T02:59:48;101223.16;;;-1.69;100.00
45275;BME280;31019;43.780;25.948;2023-12-20T03:02:15;101222.19;;;-1.68;100.00
45275;BME280;31019;43.780;25.948;2023-12-20T03:04:42;101218.84;;;-1.81;100.00
45275;BME280;31019;43.780;25.948;2023-12-20T03:07:09;101211.53;;;-1.65;100.00
45275;BME280;31019;43.780;25.948;2023-12-20T03:09:37;101214.19;;;-1.53;100.00
45275;BME280;31019;43.780;25.948;2023-12-20T03:12:06;101215.00;;;-1.53;100.00
45275;BME280;31019;43.780;25.948;2023-12-20T03:14:32;101214.91;;;-1.87;100.00
45275;BME280;31019;43.780;25.948;2023-12-20T03:17:01;101210.59;;;-1.75;100.00
45275;BME280;31019;43.780;25.948;2023-12-20T03:19:28;101209.53;;;-1.61;100.00
45275;BME280;31019;43.780;25.948;2023-12-20T03:21:55;101208.97;;;-1.89;100.00
45275;BME280;31019;43.780;25.948;2023-12-20T03:24:22;101202.19;;;-1.67;100.00
45275;BME280;31019;43.780;25.948;2023-12-20T03:26:49;101195.72;;;-1.50;100.00
45275;BME280;31019;43.780;25.948;2023-12-20T03:29:17;101204.16;;;-1.35;100.00
45275;BME280;31019;43.780;25.948;2023-12-20T03:31:44;101198.22;;;-1.26;100.00
45275;BME280;31019;43.780;25.948;2023-12-20T03:34:11;101190.75;;;-1.31;100.00
45275;BME280;31019;43.780;25.948;2023-12-20T03:36:38;101187.06;;;-1.40;100.00
45275;BME280;31019;43.780;25.948;2023-12-20T03:39:05;101179.16;;;-1.38;100.00
45275;BME280;31019;43.780;25.948;2023-12-20T03:41:32;101177.94;;;-1.34;100.00
45275;BME280;31019;43.780;25.948;2023-12-20T03:43:59;101172.16;;;-1.38;100.00
45275;BME280;31019;43.780;25.948;2023-12-20T03:46:27;101159.31;;;-1.74;100.00
45275;BME280;31019;43.780;25.948;2023-12-20T03:48:54;101164.31;;;-1.60;100.00
45275;BME280;31019;43.780;25.948;2023-12-20T03:51:24;101154.38;;;-1.66;100.00
45275;BME280;31019;43.780;25.948;2023-12-20T03:53:51;101155.88;;;-1.75;100.00
45275;BME280;31019;43.780;25.948;2023-12-20T03:56:18;101155.97;;;-1.76;100.00
45275;BME280;31019;43.780;25.948;2023-12-20T03:58:45;101146.16;;;-1.84;100.00
45275;BME280;31019;43.780;25.948;2023-12-20T04:01:12;101142.75;;;-1.62;100.00
45275;BME280;31019;43.780;25.948;2023-12-20T04:03:40;101136.13;;;-1.55;100.00
45275;BME280;31019;43.780;25.948;2023-12-20T04:06:10;101135.06;;;-1.75;100.00
45275;BME280;31019;43.780;25.948;2023-12-20T04:08:39;101143.31;;;-1.81;100.00
45275;BME280;31019;43.780;25.948;2023-12-20T04:11:06;101140.38;;;-1.65;100.00
45275;BME280;31019;43.780;25.948;2023-12-20T04:13:33;101137.41;;;-1.61;100.00
45275;BME280;31019;43.780;25.948;2023-12-20T04:16:00;101133.34;;;-1.98;100.00
45275;BME280;31019;43.780;25.948;2023-12-20T04:18:27;101141.63;;;-1.93;100.00
45275;BME280;31019;43.780;25.948;2023-12-20T04:20:56;101141.09;;;-2.10;100.00
45275;BME280;31019;43.780;25.948;2023-12-20T04:23:23;101129.19;;;-2.01;100.00
45275;BME280;31019;43.780;25.948;2023-12-20T04:25:50;101120.00;;;-1.82;100.00
45275;BME280;31019;43.780;25.948;2023-12-20T04:28:17;101130.00;;;-2.12;100.00
45275;BME280;31019;43.780;25.948;2023-12-20T04:30:44;101127.63;;;-2.03;100.00
45275;BME280;31019;43.780;25.948;2023-12-20T04:33:11;101129.78;;;-2.09;100.00
45275;BME280;31019;43.780;25.948;2023-12-20T04:35:37;101128.25;;;-1.89;100.00
45275;BME280;31019;43.780;25.948;2023-12-20T04:38:07;101127.69;;;-1.81;100.00
45275;BME280;31019;43.780;25.948;2023-12-20T04:40:34;101121.06;;;-1.74;100.00
45275;BME280;31019;43.780;25.948;2023-12-20T04:43:01;101112.44;;;-1.74;100.00
45275;BME280;31019;43.780;25.948;2023-12-20T04:45:28;101118.38;;;-1.72;100.00
45275;BME280;31019;43.780;25.948;2023-12-20T04:47:55;101117.25;;;-1.92;100.00
45275;BME280;31019;43.780;25.948;2023-12-20T04:50:22;101110.72;;;-1.98;100.00
45275;BME280;31019;43.780;25.948;2023-12-20T04:52:49;101110.50;;;-1.95;100.00
45275;BME280;31019;43.780;25.948;2023-12-20T04:55:17;101116.88;;;-1.88;100.00
45275;BME280;31019;43.780;25.948;2023-12-20T04:57:44;101114.25;;;-2.10;100.00
45275;BME280;31019;43.780;25.948;2023-12-20T05:00:12;101109.41;;;-2.03;100.00
45275;BME280;31019;43.780;25.948;2023-12-20T05:02:41;101096.31;;;-1.79;100.00
45275;BME280;31019;43.780;25.948;2023-12-20T05:05:08;101106.81;;;3.34;100.00
45275;BME280;31019;43.780;25.948;2023-12-20T05:07:35;101102.16;;;-0.76;100.00
45275;BME280;31019;43.780;25.948;2023-12-20T05:10:06;101095.97;;;-1.75;100.00
45275;BME280;31019;43.780;25.948;2023-12-20T05:12:35;101106.66;;;-2.13;100.00
45275;BME280;31019;43.780;25.948;2023-12-20T05:15:03;101102.97;;;-2.22;100.00
45275;BME280;31019;43.780;25.948;2023-12-20T05:17:30;101104.97;;;-2.25;100.00
45275;BME280;31019;43.780;25.948;2023-12-20T05:19:57;101098.75;;;-2.47;100.00
45275;BME280;31019;43.780;25.948;2023-12-20T05:22:24;101096.06;;;-2.34;100.00
45275;BME280;31019;43.780;25.948;2023-12-20T05:24:51;101089.03;;;-2.10;100.00
45275;BME280;31019;43.780;25.948;2023-12-20T05:27:18;101092.84;;;-2.14;100.00
45275;BME280;31019;43.780;25.948;2023-12-20T05:29:46;101085.97;;;-2.15;100.00
45275;BME280;31019;43.780;25.948;2023-12-20T05:32:13;101075.38;;;-1.89;100.00
45275;BME280;31019;43.780;25.948;2023-12-20T05:34:40;101083.75;;;-1.86;100.00
45275;BME280;31019;43.780;25.948;2023-12-20T05:37:07;101077.63;;;-1.62;100.00
45275;BME280;31019;43.780;25.948;2023-12-20T05:39:33;101080.91;;;-2.05;100.00
45275;BME280;31019;43.780;25.948;2023-12-20T05:42:00;101077.28;;;-1.69;100.00
45275;BME280;31019;43.780;25.948;2023-12-20T05:44:27;101078.91;;;-1.90;100.00
45275;BME280;31019;43.780;25.948;2023-12-20T05:46:55;101073.19;;;-2.18;100.00
45275;BME280;31019;43.780;25.948;2023-12-20T05:49:22;101081.09;;;-2.55;100.00
45275;BME280;31019;43.780;25.948;2023-12-20T05:51:49;101082.41;;;-2.60;100.00
45275;BME280;31019;43.780;25.948;2023-12-20T05:54:16;101072.78;;;-2.36;100.00
45275;BME280;31019;43.780;25.948;2023-12-20T05:56:44;101077.13;;;-2.01;100.00
45275;BME280;31019;43.780;25.948;2023-12-20T05:59:12;101076.38;;;-2.03;100.00
45275;BME280;31019;43.780;25.948;2023-12-20T06:01:39;101073.59;;;-1.89;100.00
45275;BME280;31019;43.780;25.948;2023-12-20T06:04:07;101075.47;;;-1.79;100.00
45275;BME280;31019;43.780;25.948;2023-12-20T06:06:34;101081.97;;;-1.85;100.00
45275;BME280;31019;43.780;25.948;2023-12-20T06:09:01;101089.47;;;-1.47;100.00
45275;BME280;31019;43.780;25.948;2023-12-20T06:11:28;101086.88;;;-1.35;100.00
45275;BME280;31019;43.780;25.948;2023-12-20T06:13:55;101089.22;;;-1.21;100.00
45275;BME280;31019;43.780;25.948;2023-12-20T06:16:22;101086.91;;;-0.92;100.00
45275;BME280;31019;43.780;25.948;2023-12-20T06:18:48;101078.91;;;-0.36;100.00
45275;BME280;31019;43.780;25.948;2023-12-20T06:21:17;101081.13;;;0.11;100.00
45275;BME280;31019;43.780;25.948;2023-12-20T06:23:44;101074.28;;;0.19;100.00
45275;BME280;31019;43.780;25.948;2023-12-20T06:26:11;101077.50;;;0.63;100.00
45275;BME280;31019;43.780;25.948;2023-12-20T06:28:38;101083.94;;;0.59;100.00
45275;BME280;31019;43.780;25.948;2023-12-20T06:31:05;101086.53;;;0.90;100.00
45275;BME280;31019;43.780;25.948;2023-12-20T06:33:32;101089.22;;;1.29;100.00
45275;BME280;31019;43.780;25.948;2023-12-20T06:35:59;101088.13;;;1.60;100.00
45275;BME280;31019;43.780;25.948;2023-12-20T06:38:35;101068.53;;;1.84;100.00
45275;BME280;31019;43.780;25.948;2023-12-20T06:41:03;101067.66;;;2.50;100.00
45275;BME280;31019;43.780;25.948;2023-12-20T06:43:29;101061.31;;;2.15;100.00
45275;BME280;31019;43.780;25.948;2023-12-20T06:45:57;101060.66;;;2.68;100.00
45275;BME280;31019;43.780;25.948;2023-12-20T06:48:24;101070.22;;;2.60;100.00
45275;BME280;31019;43.780;25.948;2023-12-20T06:50:51;101058.59;;;2.90;100.00
45275;BME280;31019;43.780;25.948;2023-12-20T06:53:18;101062.28;;;3.68;100.00
45275;BME280;31019;43.780;25.948;2023-12-20T06:55:47;101057.94;;;4.03;100.00
45275;BME280;31019;43.780;25.948;2023-12-20T06:58:14;101051.50;;;4.24;100.00
45275;BME280;31019;43.780;25.948;2023-12-20T07:00:41;101049.34;;;3.31;100.00
45275;BME280;31019;43.780;25.948;2023-12-20T07:03:09;101047.63;;;4.78;100.00
45275;BME280;31019;43.780;25.948;2023-12-20T07:05:41;101049.84;;;5.16;100.00
45275;BME280;31019;43.780;25.948;2023-12-20T07:08:11;101045.41;;;4.66;100.00
45275;BME280;31019;43.780;25.948;2023-12-20T07:10:39;101044.56;;;5.32;100.00
45275;BME280;31019;43.780;25.948;2023-12-20T07:13:08;101042.91;;;5.23;100.00
45275;BME280;31019;43.780;25.948;2023-12-20T07:15:35;101033.22;;;5.32;100.00
45275;BME280;31019;43.780;25.948;2023-12-20T07:18:02;101029.25;;;6.01;100.00
45275;BME280;31019;43.780;25.948;2023-12-20T07:20:30;101027.28;;;5.79;100.00
45275;BME280;31019;43.780;25.948;2023-12-20T07:22:57;101018.88;;;5.91;100.00
45275;BME280;31019;43.780;25.948;2023-12-20T07:25:24;101013.56;;;6.08;100.00
45275;BME280;31019;43.780;25.948;2023-12-20T07:27:51;101020.19;;;6.51;100.00
45275;BME280;31019;43.780;25.948;2023-12-20T07:30:19;101005.22;;;7.06;100.00
45275;BME280;31019;43.780;25.948;2023-12-20T07:32:46;101017.59;;;7.05;100.00
45275;BME280;31019;43.780;25.948;2023-12-20T07:35:13;101005.38;;;7.65;100.00
45275;BME280;31019;43.780;25.948;2023-12-20T07:37:40;101005.00;;;7.07;100.00
45275;BME280;31019;43.780;25.948;2023-12-20T07:40:09;100997.50;;;6.65;100.00
45275;BME280;31019;43.780;25.948;2023-12-20T07:42:36;100993.06;;;6.65;100.00
45275;BME280;31019;43.780;25.948;2023-12-20T07:45:04;100992.69;;;5.73;100.00
45275;BME280;31019;43.780;25.948;2023-12-20T07:47:32;100987.59;;;5.47;100.00
45275;BME280;31019;43.780;25.948;2023-12-20T07:49:59;100988.53;;;6.12;100.00
45275;BME280;31019;43.780;25.948;2023-12-20T07:52:26;100990.19;;;6.05;100.00
45275;BME280;31019;43.780;25.948;2023-12-20T07:54:53;100983.72;;;6.24;100.00
45275;BME280;31019;43.780;25.948;2023-12-20T07:57:20;100987.06;;;5.93;100.00
45275;BME280;31019;43.780;25.948;2023-12-20T07:59:47;100995.47;;;5.80;100.00
45275;BME280;31019;43.780;25.948;2023-12-20T08:02:14;100999.16;;;5.55;100.00
45275;BME280;31019;43.780;25.948;2023-12-20T08:04:42;100991.78;;;6.14;100.00
45275;BME280;31019;43.780;25.948;2023-12-20T08:07:09;100990.88;;;5.82;100.00
45275;BME280;31019;43.780;25.948;2023-12-20T08:09:36;100991.25;;;5.38;100.00
45275;BME280;31019;43.780;25.948;2023-12-20T08:12:03;100998.00;;;5.41;100.00
45275;BME280;31019;43.780;25.948;2023-12-20T08:14:30;100998.56;;;4.61;100.00
45275;BME280;31019;43.780;25.948;2023-12-20T08:16:57;100997.66;;;5.44;100.00
45275;BME280;31019;43.780;25.948;2023-12-20T08:19:24;101003.91;;;5.10;100.00
45275;BME280;31019;43.780;25.948;2023-12-20T08:21:52;101002.09;;;5.11;100.00
45275;BME280;31019;43.780;25.948;2023-12-20T08:24:19;100990.91;;;5.00;100.00
45275;BME280;31019;43.780;25.948;2023-12-20T08:26:48;100977.72;;;4.92;100.00
45275;BME280;31019;43.780;25.948;2023-12-20T08:29:15;100977.06;;;4.98;100.00
45275;BME280;31019;43.780;25.948;2023-12-20T08:31:42;100972.41;;;4.68;100.00
45275;BME280;31019;43.780;25.948;2023-12-20T08:34:09;100962.72;;;4.76;100.00
45275;BME280;31019;43.780;25.948;2023-12-20T08:36:37;100952.03;;;4.78;100.00
45275;BME280;31019;43.780;25.948;2023-12-20T08:39:06;100946.66;;;5.12;100.00
45275;BME280;31019;43.780;25.948;2023-12-20T08:41:35;100944.09;;;4.53;100.00
45275;BME280;31019;43.780;25.948;2023-12-20T08:44:02;100944.78;;;4.72;100.00
45275;BME280;31019;43.780;25.948;2023-12-20T08:46:29;100935.09;;;4.64;100.00
45275;BME280;31019;43.780;25.948;2023-12-20T08:48:57;100939.50;;;4.55;100.00
45275;BME280;31019;43.780;25.948;2023-12-20T08:51:23;100937.88;;;4.63;100.00
45275;BME280;31019;43.780;25.948;2023-12-20T08:53:51;100929.00;;;4.72;100.00
45275;BME280;31019;43.780;25.948;2023-12-20T08:56:19;100922.75;;;4.65;100.00
45275;BME280;31019;43.780;25.948;2023-12-20T08:58:46;100922.13;;;4.87;100.00
45275;BME280;31019;43.780;25.948;2023-12-20T09:01:13;100920.28;;;4.71;100.00
45275;BME280;31019;43.780;25.948;2023-12-20T09:03:40;100905.66;;;5.10;100.00
45275;BME280;31019;43.780;25.948;2023-12-20T09:06:07;100900.38;;;5.26;100.00
45275;BME280;31019;43.780;25.948;2023-12-20T09:08:34;100896.72;;;5.51;100.00
45275;BME280;31019;43.780;25.948;2023-12-20T09:11:04;100880.88;;;5.68;100.00
45275;BME280;31019;43.780;25.948;2023-12-20T09:13:32;100880.44;;;5.40;100.00
45275;BME280;31019;43.780;25.948;2023-12-20T09:15:59;100873.28;;;5.73;100.00
45275;BME280;31019;43.780;25.948;2023-12-20T09:18:26;100875.63;;;6.07;100.00
45275;BME280;31019;43.780;25.948;2023-12-20T09:20:54;100869.59;;;5.90;100.00
45275;BME280;31019;43.780;25.948;2023-12-20T09:23:21;100869.72;;;7.65;100.00
45275;BME280;31019;43.780;25.948;2023-12-20T09:25:50;100866.56;;;7.54;100.00
45275;BME280;31019;43.780;25.948;2023-12-20T09:28:17;100857.00;;;7.53;100.00
45275;BME280;31019;43.780;25.948;2023-12-20T09:30:45;100848.41;;;7.37;100.00
45275;BME280;31019;43.780;25.948;2023-12-20T09:33:14;100841.38;;;7.14;100.00
45275;BME280;31019;43.780;25.948;2023-12-20T09:35:41;100836.72;;;7.16;100.00
45275;BME280;31019;43.780;25.948;2023-12-20T09:38:09;100826.34;;;7.44;100.00
45275;BME280;31019;43.780;25.948;2023-12-20T09:40:36;100823.44;;;7.54;100.00
45275;BME280;31019;43.780;25.948;2023-12-20T09:43:08;100818.16;;;8.05;100.00
45275;BME280;31019;43.780;25.948;2023-12-20T09:45:38;100798.94;;;7.96;100.00
45275;BME280;31019;43.780;25.948;2023-12-20T09:48:10;100795.31;;;8.19;100.00
45275;BME280;31019;43.780;25.948;2023-12-20T09:50:37;100783.69;;;8.84;100.00
45275;BME280;31019;43.780;25.948;2023-12-20T09:53:05;100780.16;;;9.40;100.00
45275;BME280;31019;43.780;25.948;2023-12-20T09:55:36;100771.25;;;9.20;100.00
45275;BME280;31019;43.780;25.948;2023-12-20T09:58:03;100772.13;;;8.64;100.00
45275;BME280;31019;43.780;25.948;2023-12-20T10:00:31;100768.53;;;8.29;100.00
45275;BME280;31019;43.780;25.948;2023-12-20T10:03:02;100763.41;;;9.88;100.00
45275;BME280;31019;43.780;25.948;2023-12-20T10:05:34;100755.28;;;11.09;100.00
45275;BME280;31019;43.780;25.948;2023-12-20T10:08:02;100745.06;;;12.09;100.00
45275;BME280;31019;43.780;25.948;2023-12-20T10:10:29;100739.38;;;10.95;100.00
45275;BME280;31019;43.780;25.948;2023-12-20T10:13:03;100729.53;;;11.09;100.00
45275;BME280;31019;43.780;25.948;2023-12-20T10:15:31;100727.34;;;12.21;100.00
45275;BME280;31019;43.780;25.948;2023-12-20T10:17:58;100727.56;;;13.13;100.00
45275;BME280;31019;43.780;25.948;2023-12-20T10:20:25;100717.53;;;12.47;100.00
45275;BME280;31019;43.780;25.948;2023-12-20T10:22:56;100713.91;;;12.09;100.00
45275;BME280;31019;43.780;25.948;2023-12-20T10:25:24;100714.03;;;11.96;100.00
45275;BME280;31019;43.780;25.948;2023-12-20T10:28:11;100698.06;;;12.21;100.00
45275;BME280;31019;43.780;25.948;2023-12-20T10:30:39;100707.00;;;11.63;100.00
45275;BME280;31019;43.780;25.948;2023-12-20T10:33:06;100702.63;;;12.39;100.00
45275;BME280;31019;43.780;25.948;2023-12-20T10:35:36;100694.88;;;13.36;100.00
45275;BME280;31019;43.780;25.948;2023-12-20T10:38:06;100689.25;;;14.28;100.00
45275;BME280;31019;43.780;25.948;2023-12-20T10:40:38;100677.91;;;12.75;100.00
45275;BME280;31019;43.780;25.948;2023-12-20T10:43:05;100674.50;;;13.42;100.00
45275;BME280;31019;43.780;25.948;2023-12-20T10:45:32;100664.63;;;14.73;100.00
45275;BME280;31019;43.780;25.948;2023-12-20T10:48:02;100657.63;;;14.02;100.00
45275;BME280;31019;43.780;25.948;2023-12-20T10:50:29;100656.69;;;14.90;100.00
45275;BME280;31019;43.780;25.948;2023-12-20T10:52:57;100653.34;;;15.52;100.00
45275;BME280;31019;43.780;25.948;2023-12-20T10:55:26;100648.09;;;14.17;100.00
45275;BME280;31019;43.780;25.948;2023-12-20T10:57:54;100638.00;;;14.19;100.00
45275;BME280;31019;43.780;25.948;2023-12-20T11:00:28;100649.44;;;15.71;100.00
45275;BME280;31019;43.780;25.948;2023-12-20T11:03:00;100632.47;;;16.72;100.00
45275;BME280;31019;43.780;25.948;2023-12-20T11:05:36;100626.59;;;16.92;100.00
45275;BME280;31019;43.780;25.948;2023-12-20T11:08:09;100623.81;;;16.48;100.00
45275;BME280;31019;43.780;25.948;2023-12-20T11:10:43;100628.03;;;16.05;100.00
45275;BME280;31019;43.780;25.948;2023-12-20T11:13:20;100631.31;;;15.33;100.00
45275;BME280;31019;43.780;25.948;2023-12-20T11:15:50;100633.88;;;14.99;100.00
45275;BME280;31019;43.780;25.948;2023-12-20T11:18:17;100617.22;;;14.57;100.00
45275;BME280;31019;43.780;25.948;2023-12-20T11:20:44;100607.56;;;14.32;100.00
45275;BME280;31019;43.780;25.948;2023-12-20T11:23:11;100609.91;;;15.78;100.00
45275;BME280;31019;43.780;25.948;2023-12-20T11:25:52;100607.94;;;16.80;100.00
45275;BME280;31019;43.780;25.948;2023-12-20T11:28:22;100604.31;;;17.18;100.00
45275;BME280;31019;43.780;25.948;2023-12-20T11:30:51;100599.03;;;18.20;100.00
45275;BME280;31019;43.780;25.948;2023-12-20T11:33:21;100596.31;;;19.46;100.00
45275;BME280;31019;43.780;25.948;2023-12-20T11:35:49;100595.25;;;20.08;100.00
45275;BME280;31019;43.780;25.948;2023-12-20T11:38:16;100587.72;;;20.00;88.53
45275;BME280;31019;43.780;25.948;2023-12-20T11:40:43;100592.47;;;19.01;100.00
45275;BME280;31019;43.780;25.948;2023-12-20T11:43:11;100584.31;;;17.85;100.00
45275;BME280;31019;43.780;25.948;2023-12-20T11:45:49;100576.09;;;19.33;100.00
45275;BME280;31019;43.780;25.948;2023-12-20T11:48:23;100568.53;;;19.30;100.00
45275;BME280;31019;43.780;25.948;2023-12-20T11:50:50;100557.66;;;16.70;100.00
45275;BME280;31019;43.780;25.948;2023-12-20T11:53:18;100556.59;;;16.11;100.00
45275;BME280;31019;43.780;25.948;2023-12-20T11:55:47;100539.97;;;15.92;100.00
45275;BME280;31019;43.780;25.948;2023-12-20T11:58:15;100549.44;;;13.34;100.00
45275;BME280;31019;43.780;25.948;2023-12-20T12:00:43;100543.56;;;12.46;100.00
45275;BME280;31019;43.780;25.948;2023-12-20T12:03:10;100537.53;;;12.88;100.00
45275;BME280;31019;43.780;25.948;2023-12-20T12:05:36;100521.75;;;12.37;100.00
45275;BME280;31019;43.780;25.948;2023-12-20T12:08:04;100525.84;;;14.19;100.00
45275;BME280;31019;43.780;25.948;2023-12-20T12:10:31;100509.91;;;13.54;100.00
45275;BME280;31019;43.780;25.948;2023-12-20T12:12:59;100517.81;;;12.03;100.00
45275;BME280;31019;43.780;25.948;2023-12-20T12:15:29;100511.84;;;12.45;100.00
45275;BME280;31019;43.780;25.948;2023-12-20T12:17:57;100501.31;;;13.52;100.00
45275;BME280;31019;43.780;25.948;2023-12-20T12:20:24;100503.13;;;16.43;100.00
45275;BME280;31019;43.780;25.948;2023-12-20T12:22:58;100506.28;;;13.06;100.00
45275;BME280;31019;43.780;25.948;2023-12-20T12:25:25;100507.53;;;12.25;100.00
45275;BME280;31019;43.780;25.948;2023-12-20T12:27:52;100512.44;;;13.37;100.00
45275;BME280;31019;43.780;25.948;2023-12-20T12:30:20;100512.44;;;13.49;100.00
45275;BME280;31019;43.780;25.948;2023-12-20T12:32:50;100517.00;;;12.58;100.00
45275;BME280;31019;43.780;25.948;2023-12-20T12:35:17;100520.91;;;12.00;100.00
45275;BME280;31019;43.780;25.948;2023-12-20T12:37:46;100507.97;;;14.49;100.00
45275;BME280;31019;43.780;25.948;2023-12-20T12:40:14;100513.19;;;13.14;100.00